sensor_id;sensor_type;location;lat;lon;timestamp;temperature;humidity
73438;DHT22;66471;56.532;21.020;2024-03-07T08:28:20;10.60;43.60
73438;DHT22;66471;56.532;21.020;2024-03-07T08:30:47;11.50;42.30
73438;DHT22;66471;56.532;21.020;2024-03-07T08:33:14;12.10;41.70
73438;DHT22;66471;56.532;21.020;2024-03-07T08:35:42;12.30;41.20
73438;DHT22;66471;56.532;21.020;2024-03-07T08:38:09;12.70;40.40
73438;DHT22;66471;56.532;21.020;2024-03-07T08:40:37;12.70;39.30
73438;DHT22;66471;56.532;21.020;2024-03-07T08:43:04;13.30;39.40
73438;DHT22;66471;56.532;21.020;2024-03-07T08:45:34;12.20;39.90
73438;DHT22;66471;56.532;21.020;2024-03-07T08:48:03;11.30;41.80
73438;DHT22;66471;56.532;21.020;2024-03-07T08:50:36;12.10;41.70
73438;DHT22;66471;56.532;21.020;2024-03-07T08:53:06;12.60;41.60
73438;DHT22;66471;56.532;21.020;2024-03-07T08:55:34;13.00;39.40
73438;DHT22;66471;56.532;21.020;2024-03-07T08:58:04;13.00;40.50
73438;DHT22;66471;56.532;21.020;2024-03-07T09:00:34;13.70;40.30
73438;DHT22;66471;56.532;21.020;2024-03-07T09:03:05;14.00;41.20
73438;DHT22;66471;56.532;21.020;2024-03-07T09:05:39;13.50;40.60
73438;DHT22;66471;56.532;21.020;2024-03-07T09:08:07;13.10;41.70
73438;DHT22;66471;56.532;21.020;2024-03-07T09:10:35;13.80;40.80
73438;DHT22;66471;56.532;21.020;2024-03-07T09:13:02;13.20;42.40
73438;DHT22;66471;56.532;21.020;2024-03-07T09:15:30;14.20;41.20
73438;DHT22;66471;56.532;21.020;2024-03-07T09:17:57;14.80;42.20
73438;DHT22;66471;56.532;21.020;2024-03-07T09:20:25;15.80;40.50
73438;DHT22;66471;56.532;21.020;2024-03-07T09:22:53;16.00;40.20
73438;DHT22;66471;56.532;21.020;2024-03-07T09:25:23;16.00;40.70
73438;DHT22;66471;56.532;21.020;2024-03-07T09:27:52;16.20;40.30
73438;DHT22;66471;56.532;21.020;2024-03-07T09:30:22;16.10;40.60
73438;DHT22;66471;56.532;21.020;2024-03-07T09:32:55;16.40;40.20
73438;DHT22;66471;56.532;21.020;2024-03-07T09:35:23;16.70;39.20
73438;DHT22;66471;56.532;21.020;2024-03-07T09:37:51;16.70;39.70
73438;DHT22;66471;56.532;21.020;2024-03-07T09:40:18;16.50;39.90
73438;DHT22;66471;56.532;21.020;2024-03-07T09:42:52;16.30;40.60
73438;DHT22;66471;56.532;21.020;2024-03-07T09:45:23;17.00;39.90
73438;DHT22;66471;56.532;21.020;2024-03-07T09:47:52;17.10;39.70
73438;DHT22;66471;56.532;21.020;2024-03-07T09:50:21;16.70;40.00
73438;DHT22;66471;56.532;21.020;2024-03-07T09:52:51;16.70;40.00
73438;DHT22;66471;56.532;21.020;2024-03-07T09:55:21;16.70;40.00
73438;DHT22;66471;56.532;21.020;2024-03-07T09:57:50;16.30;40.60
73438;DHT22;66471;56.532;21.020;2024-03-07T10:00:18;16.40;40.70
73438;DHT22;66471;56.532;21.020;2024-03-07T10:03:12;16.50;40.00
73438;DHT22;66471;56.532;21.020;2024-03-07T10:05:42;16.20;41.00
73438;DHT22;66471;56.532;21.020;2024-03-07T10:08:11;16.00;40.70
73438;DHT22;66471;56.532;21.020;2024-03-07T10:10:39;15.50;42.10
73438;DHT22;66471;56.532;21.020;2024-03-07T10:13:06;16.20;41.80
73438;DHT22;66471;56.532;21.020;2024-03-07T10:15:35;16.30;40.70
73438;DHT22;66471;56.532;21.020;2024-03-07T10:18:09;16.40;41.00
73438;DHT22;66471;56.532;21.020;2024-03-07T10:20:43;16.20;41.60
73438;DHT22;66471;56.532;21.020;2024-03-07T10:23:12;16.40;41.20
73438;DHT22;66471;56.532;21.020;2024-03-07T10:25:47;16.20;41.00
73438;DHT22;66471;56.532;21.020;2024-03-07T10:28:16;15.60;42.00
73438;DHT22;66471;56.532;21.020;2024-03-07T10:30:44;15.50;42.60
73438;DHT22;66471;56.532;21.020;2024-03-07T10:33:12;16.20;41.80
73438;DHT22;66471;56.532;21.020;2024-03-07T10:35:40;16.30;41.80
73438;DHT22;66471;56.532;21.020;2024-03-07T10:38:07;15.50;42.40
73438;DHT22;66471;56.532;21.020;2024-03-07T10:40:36;15.80;42.40
73438;DHT22;66471;56.532;21.020;2024-03-07T10:43:12;15.60;43.00
73438;DHT22;66471;56.532;21.020;2024-03-07T10:45:45;16.00;42.00
73438;DHT22;66471;56.532;21.020;2024-03-07T10:48:20;15.40;42.90
73438;DHT22;66471;56.532;21.020;2024-03-07T10:51:18;15.30;44.30
73438;DHT22;66471;56.532;21.020;2024-03-07T10:53:59;16.80;40.70
73438;DHT22;66471;56.532;21.020;2024-03-07T10:59:18;16.40;41.40
73438;DHT22;66471;56.532;21.020;2024-03-07T11:04:35;16.10;42.00
73438;DHT22;66471;56.532;21.020;2024-03-07T11:07:02;16.60;41.40
73438;DHT22;66471;56.532;21.020;2024-03-07T11:09:31;16.40;41.70
73438;DHT22;66471;56.532;21.020;2024-03-07T11:12:01;16.40;42.10
73438;DHT22;66471;56.532;21.020;2024-03-07T11:14:34;16.50;42.10
73438;DHT22;66471;56.532;21.020;2024-03-07T11:17:04;16.30;41.70
73438;DHT22;66471;56.532;21.020;2024-03-07T11:19:32;15.90;42.90
73438;DHT22;66471;56.532;21.020;2024-03-07T11:22:04;16.00;42.80
73438;DHT22;66471;56.532;21.020;2024-03-07T11:24:43;16.30;42.10
73438;DHT22;66471;56.532;21.020;2024-03-07T11:27:10;16.60;41.50
73438;DHT22;66471;56.532;21.020;2024-03-07T11:29:48;18.00;43.10
73438;DHT22;66471;56.532;21.020;2024-03-07T11:32:24;17.90;43.40
73438;DHT22;66471;56.532;21.020;2024-03-07T11:35:13;19.10;36.50
73438;DHT22;66471;56.532;21.020;2024-03-07T11:37:59;17.80;39.30
73438;DHT22;66471;56.532;21.020;2024-03-07T11:42:57;16.60;40.20
73438;DHT22;66471;56.532;21.020;2024-03-07T11:45:27;16.60;41.10
73438;DHT22;66471;56.532;21.020;2024-03-07T11:47:58;16.30;40.90
73438;DHT22;66471;56.532;21.020;2024-03-07T11:50:40;17.20;39.30
73438;DHT22;66471;56.532;21.020;2024-03-07T11:53:09;16.80;41.00
73438;DHT22;66471;56.532;21.020;2024-03-07T11:55:38;16.70;41.00
73438;DHT22;66471;56.532;21.020;2024-03-07T13:45:16;11.40;53.30
73438;DHT22;66471;56.532;21.020;2024-03-07T13:47:44;12.40;52.40
73438;DHT22;66471;56.532;21.020;2024-03-07T13:50:12;12.30;51.80
73438;DHT22;66471;56.532;21.020;2024-03-07T13:52:41;12.60;50.20
73438;DHT22;66471;56.532;21.020;2024-03-07T13:55:21;12.30;50.70
73438;DHT22;66471;56.532;21.020;2024-03-07T13:57:53;13.00;48.80
73438;DHT22;66471;56.532;21.020;2024-03-07T14:05:56;12.10;51.50
73438;DHT22;66471;56.532;21.020;2024-03-07T14:18:08;11.40;50.40
73438;DHT22;66471;56.532;21.020;2024-03-07T14:23:39;10.40;53.70
73438;DHT22;66471;56.532;21.020;2024-03-07T14:26:49;9.80;55.50
73438;DHT22;66471;56.532;21.020;2024-03-07T14:32:37;7.70;62.00
73438;DHT22;66471;56.532;21.020;2024-03-07T14:35:23;7.40;63.80
73438;DHT22;66471;56.532;21.020;2024-03-07T14:38:02;7.30;66.20
73438;DHT22;66471;56.532;21.020;2024-03-07T14:40:32;7.10;65.80
73438;DHT22;66471;56.532;21.020;2024-03-07T14:43:02;7.10;66.70
73438;DHT22;66471;56.532;21.020;2024-03-07T14:45:40;7.10;66.80
73438;DHT22;66471;56.532;21.020;2024-03-07T14:48:08;7.30;65.20
73438;DHT22;66471;56.532;21.020;2024-03-07T14:50:39;7.30;65.10
73438;DHT22;66471;56.532;21.020;2024-03-07T14:53:07;6.70;67.10
73438;DHT22;66471;56.532;21.020;2024-03-07T14:55:35;6.10;69.70
73438;DHT22;66471;56.532;21.020;2024-03-07T14:58:03;6.10;71.00
73438;DHT22;66471;56.532;21.020;2024-03-07T15:00:30;6.40;70.00
73438;DHT22;66471;56.532;21.020;2024-03-07T15:03:15;6.40;68.30
73438;DHT22;66471;56.532;21.020;2024-03-07T15:05:53;7.40;65.90
73438;DHT22;66471;56.532;21.020;2024-03-07T15:08:21;7.30;64.40
73438;DHT22;66471;56.532;21.020;2024-03-07T15:10:59;7.20;65.80
73438;DHT22;66471;56.532;21.020;2024-03-07T15:13:30;6.80;67.00
73438;DHT22;66471;56.532;21.020;2024-03-07T15:15:57;6.80;67.40
73438;DHT22;66471;56.532;21.020;2024-03-07T15:18:26;7.10;65.40
73438;DHT22;66471;56.532;21.020;2024-03-07T15:20:55;7.30;64.50
73438;DHT22;66471;56.532;21.020;2024-03-07T15:23:22;7.40;64.30
73438;DHT22;66471;56.532;21.020;2024-03-07T15:25:49;7.10;65.30
73438;DHT22;66471;56.532;21.020;2024-03-07T15:28:16;6.80;67.30
73438;DHT22;66471;56.532;21.020;2024-03-07T15:30:44;7.10;66.40
73438;DHT22;66471;56.532;21.020;2024-03-07T15:33:11;7.20;66.10
73438;DHT22;66471;56.532;21.020;2024-03-07T15:35:38;7.00;66.20
73438;DHT22;66471;56.532;21.020;2024-03-07T15:38:05;7.10;64.90
73438;DHT22;66471;56.532;21.020;2024-03-07T15:40:33;6.60;67.50
73438;DHT22;66471;56.532;21.020;2024-03-07T15:43:01;5.80;70.10
73438;DHT22;66471;56.532;21.020;2024-03-07T15:45:29;5.20;72.70
73438;DHT22;66471;56.532;21.020;2024-03-07T15:47:58;4.60;74.60
73438;DHT22;66471;56.532;21.020;2024-03-07T15:50:26;4.20;77.30
73438;DHT22;66471;56.532;21.020;2024-03-07T15:52:58;3.60;79.00
73438;DHT22;66471;56.532;21.020;2024-03-07T15:55:28;3.10;80.30
73438;DHT22;66471;56.532;21.020;2024-03-07T15:57:59;2.60;82.20
73438;DHT22;66471;56.532;21.020;2024-03-07T16:00:27;1.90;84.60
73438;DHT22;66471;56.532;21.020;2024-03-07T16:03:05;1.70;85.80
73438;DHT22;66471;56.532;21.020;2024-03-07T16:05:35;1.30;87.20
73438;DHT22;66471;56.532;21.020;2024-03-07T16:08:08;1.30;88.30
73438;DHT22;66471;56.532;21.020;2024-03-07T16:10:38;1.10;88.90
73438;DHT22;66471;56.532;21.020;2024-03-07T16:13:10;1.00;89.20
73438;DHT22;66471;56.532;21.020;2024-03-07T16:15:43;0.90;89.90
73438;DHT22;66471;56.532;21.020;2024-03-07T16:18:12;0.80;90.40
73438;DHT22;66471;56.532;21.020;2024-03-07T16:20:42;0.90;91.40
73438;DHT22;66471;56.532;21.020;2024-03-07T16:23:15;0.70;91.90
73438;DHT22;66471;56.532;21.020;2024-03-07T16:25:44;0.70;92.20
73438;DHT22;66471;56.532;21.020;2024-03-07T16:28:11;0.50;92.30
73438;DHT22;66471;56.532;21.020;2024-03-07T16:30:40;0.40;93.00
73438;DHT22;66471;56.532;21.020;2024-03-07T16:33:14;0.50;93.10
73438;DHT22;66471;56.532;21.020;2024-03-07T16:35:45;0.30;93.20
73438;DHT22;66471;56.532;21.020;2024-03-07T16:38:12;0.20;93.70
73438;DHT22;66471;56.532;21.020;2024-03-07T16:40:40;0.40;93.90
73438;DHT22;66471;56.532;21.020;2024-03-07T16:43:10;0.20;94.40
73438;DHT22;66471;56.532;21.020;2024-03-07T16:45:40;0.10;94.80
73438;DHT22;66471;56.532;21.020;2024-03-07T16:48:08;0.30;94.70
73438;DHT22;66471;56.532;21.020;2024-03-07T16:50:39;0.00;94.80
73438;DHT22;66471;56.532;21.020;2024-03-07T16:53:10;0.00;95.30
73438;DHT22;66471;56.532;21.020;2024-03-07T16:55:38;0.00;95.20
73438;DHT22;66471;56.532;21.020;2024-03-07T16:58:07;0.10;95.60
73438;DHT22;66471;56.532;21.020;2024-03-07T17:00:40;0.50;95.90
73438;DHT22;66471;56.532;21.020;2024-03-07T17:03:11;0.40;95.70
73438;DHT22;66471;56.532;21.020;2024-03-07T17:05:41;0.30;95.70
73438;DHT22;66471;56.532;21.020;2024-03-07T17:08:11;0.30;95.70
73438;DHT22;66471;56.532;21.020;2024-03-07T17:10:42;0.10;95.90
73438;DHT22;66471;56.532;21.020;2024-03-07T17:13:12;0.10;96.00
73438;DHT22;66471;56.532;21.020;2024-03-07T17:15:41;0.10;96.10
73438;DHT22;66471;56.532;21.020;2024-03-07T17:18:14;0.20;96.20
73438;DHT22;66471;56.532;21.020;2024-03-07T17:20:42;0.20;96.20
73438;DHT22;66471;56.532;21.020;2024-03-07T17:23:12;0.10;96.20
73438;DHT22;66471;56.532;21.020;2024-03-07T17:25:40;0.20;96.50
73438;DHT22;66471;56.532;21.020;2024-03-07T17:28:08;0.40;96.50
73438;DHT22;66471;56.532;21.020;2024-03-07T17:30:35;0.20;96.80
73438;DHT22;66471;56.532;21.020;2024-03-07T17:33:03;0.30;96.70
73438;DHT22;66471;56.532;21.020;2024-03-07T17:35:34;0.30;96.50
73438;DHT22;66471;56.532;21.020;2024-03-07T17:38:03;0.10;96.30
73438;DHT22;66471;56.532;21.020;2024-03-07T17:40:31;0.20;96.80
73438;DHT22;66471;56.532;21.020;2024-03-07T17:43:02;0.40;96.90
73438;DHT22;66471;56.532;21.020;2024-03-07T17:45:32;0.10;97.00
73438;DHT22;66471;56.532;21.020;2024-03-07T17:48:04;0.30;97.20
73438;DHT22;66471;56.532;21.020;2024-03-07T17:50:34;0.50;96.90
73438;DHT22;66471;56.532;21.020;2024-03-07T17:53:04;0.50;96.30
73438;DHT22;66471;56.532;21.020;2024-03-07T17:55:37;0.50;95.70
73438;DHT22;66471;56.532;21.020;2024-03-07T17:58:09;0.60;95.50
73438;DHT22;66471;56.532;21.020;2024-03-07T18:00:39;0.60;95.50
73438;DHT22;66471;56.532;21.020;2024-03-07T18:03:11;0.50;95.70
73438;DHT22;66471;56.532;21.020;2024-03-07T18:05:40;0.80;95.50
73438;DHT22;66471;56.532;21.020;2024-03-07T18:08:09;0.70;95.20
73438;DHT22;66471;56.532;21.020;2024-03-07T18:10:56;0.60;95.40
73438;DHT22;66471;56.532;21.020;2024-03-07T18:13:27;0.50;95.20
73438;DHT22;66471;56.532;21.020;2024-03-07T18:15:54;0.80;95.10
73438;DHT22;66471;56.532;21.020;2024-03-07T18:18:22;0.80;94.90
73438;DHT22;66471;56.532;21.020;2024-03-07T18:20:52;1.00;94.80
73438;DHT22;66471;56.532;21.020;2024-03-07T18:23:19;0.70;94.60
73438;DHT22;66471;56.532;21.020;2024-03-07T18:25:48;0.60;95.00
73438;DHT22;66471;56.532;21.020;2024-03-07T18:28:17;1.00;94.70
73438;DHT22;66471;56.532;21.020;2024-03-07T18:30:47;0.90;94.70
73438;DHT22;66471;56.532;21.020;2024-03-07T18:33:18;0.80;94.90
73438;DHT22;66471;56.532;21.020;2024-03-07T18:35:49;0.80;94.90
73438;DHT22;66471;56.532;21.020;2024-03-07T18:38:17;0.80;94.80
73438;DHT22;66471;56.532;21.020;2024-03-07T18:40:44;0.70;94.40
73438;DHT22;66471;56.532;21.020;2024-03-07T18:43:11;0.80;94.60
73438;DHT22;66471;56.532;21.020;2024-03-07T18:45:40;0.90;94.50
73438;DHT22;66471;56.532;21.020;2024-03-07T18:48:12;1.00;94.70
73438;DHT22;66471;56.532;21.020;2024-03-07T18:50:41;0.90;94.50
73438;DHT22;66471;56.532;21.020;2024-03-07T18:53:16;0.80;94.50
73438;DHT22;66471;56.532;21.020;2024-03-07T18:55:48;0.90;94.40
73438;DHT22;66471;56.532;21.020;2024-03-07T18:58:17;0.90;94.50
73438;DHT22;66471;56.532;21.020;2024-03-07T19:00:45;1.00;94.50
73438;DHT22;66471;56.532;21.020;2024-03-07T19:03:17;1.00;94.40
73438;DHT22;66471;56.532;21.020;2024-03-07T19:05:48;0.90;94.50
73438;DHT22;66471;56.532;21.020;2024-03-07T19:08:18;0.80;94.90
73438;DHT22;66471;56.532;21.020;2024-03-07T19:10:51;0.80;94.90
73438;DHT22;66471;56.532;21.020;2024-03-07T19:13:19;0.70;94.80
73438;DHT22;66471;56.532;21.020;2024-03-07T19:15:49;0.70;95.30
73438;DHT22;66471;56.532;21.020;2024-03-07T19:18:16;0.90;95.00
73438;DHT22;66471;56.532;21.020;2024-03-07T19:20:48;1.00;95.10
73438;DHT22;66471;56.532;21.020;2024-03-07T19:23:17;0.80;95.00
73438;DHT22;66471;56.532;21.020;2024-03-07T19:25:47;1.00;95.50
73438;DHT22;66471;56.532;21.020;2024-03-07T19:28:18;0.80;95.40
73438;DHT22;66471;56.532;21.020;2024-03-07T19:30:49;1.10;95.20
73438;DHT22;66471;56.532;21.020;2024-03-07T19:33:20;0.70;95.30
73438;DHT22;66471;56.532;21.020;2024-03-07T19:35:53;1.00;95.60
73438;DHT22;66471;56.532;21.020;2024-03-07T19:38:26;0.90;95.50
73438;DHT22;66471;56.532;21.020;2024-03-07T19:40:55;0.60;95.90
73438;DHT22;66471;56.532;21.020;2024-03-07T19:43:22;0.80;95.80
73438;DHT22;66471;56.532;21.020;2024-03-07T19:45:51;0.80;95.50
73438;DHT22;66471;56.532;21.020;2024-03-07T19:48:19;0.90;95.60
73438;DHT22;66471;56.532;21.020;2024-03-07T19:50:53;1.00;95.50
73438;DHT22;66471;56.532;21.020;2024-03-07T19:53:22;0.90;95.30
73438;DHT22;66471;56.532;21.020;2024-03-07T19:55:49;0.80;95.60
73438;DHT22;66471;56.532;21.020;2024-03-07T19:58:17;1.00;95.30
73438;DHT22;66471;56.532;21.020;2024-03-07T20:00:48;0.80;95.30
73438;DHT22;66471;56.532;21.020;2024-03-07T20:03:16;0.90;95.50
73438;DHT22;66471;56.532;21.020;2024-03-07T20:05:54;0.90;95.50
73438;DHT22;66471;56.532;21.020;2024-03-07T20:08:36;0.90;95.60
73438;DHT22;66471;56.532;21.020;2024-03-07T20:11:03;0.80;96.00
73438;DHT22;66471;56.532;21.020;2024-03-07T20:13:34;0.90;95.70
73438;DHT22;66471;56.532;21.020;2024-03-07T20:16:02;0.90;96.00
73438;DHT22;66471;56.532;21.020;2024-03-07T20:18:29;0.80;96.50
73438;DHT22;66471;56.532;21.020;2024-03-07T20:20:59;0.80;96.60
73438;DHT22;66471;56.532;21.020;2024-03-07T20:23:32;0.60;96.30
73438;DHT22;66471;56.532;21.020;2024-03-07T20:25:59;0.70;96.70
73438;DHT22;66471;56.532;21.020;2024-03-07T20:28:27;0.80;96.60
73438;DHT22;66471;56.532;21.020;2024-03-07T20:30:54;0.60;96.90
73438;DHT22;66471;56.532;21.020;2024-03-07T20:33:23;0.70;96.60
73438;DHT22;66471;56.532;21.020;2024-03-07T20:35:52;0.90;96.70
73438;DHT22;66471;56.532;21.020;2024-03-07T20:38:19;0.90;96.70
73438;DHT22;66471;56.532;21.020;2024-03-07T20:40:50;0.80;96.30
73438;DHT22;66471;56.532;21.020;2024-03-07T20:43:23;0.90;96.70
73438;DHT22;66471;56.532;21.020;2024-03-07T20:45:50;0.60;96.90
73438;DHT22;66471;56.532;21.020;2024-03-07T20:48:18;0.50;97.10
73438;DHT22;66471;56.532;21.020;2024-03-07T20:50:48;0.70;96.90
73438;DHT22;66471;56.532;21.020;2024-03-07T20:53:15;0.70;96.40
73438;DHT22;66471;56.532;21.020;2024-03-07T20:55:43;0.50;96.80
73438;DHT22;66471;56.532;21.020;2024-03-07T20:58:10;0.60;96.90
73438;DHT22;66471;56.532;21.020;2024-03-07T21:00:39;0.80;96.80
73438;DHT22;66471;56.532;21.020;2024-03-07T21:03:14;0.60;96.40
73438;DHT22;66471;56.532;21.020;2024-03-07T21:05:50;0.50;96.50
73438;DHT22;66471;56.532;21.020;2024-03-07T21:08:18;0.30;96.90
73438;DHT22;66471;56.532;21.020;2024-03-07T21:10:46;0.40;97.10
73438;DHT22;66471;56.532;21.020;2024-03-07T21:13:13;0.30;97.30
73438;DHT22;66471;56.532;21.020;2024-03-07T21:15:40;0.50;97.50
73438;DHT22;66471;56.532;21.020;2024-03-07T21:18:07;0.30;97.70
73438;DHT22;66471;56.532;21.020;2024-03-07T21:20:35;0.20;97.50
73438;DHT22;66471;56.532;21.020;2024-03-07T21:23:03;0.30;97.40
73438;DHT22;66471;56.532;21.020;2024-03-07T21:25:34;0.40;97.30
73438;DHT22;66471;56.532;21.020;2024-03-07T21:28:05;0.20;97.10
73438;DHT22;66471;56.532;21.020;2024-03-07T21:30:32;0.40;97.20
73438;DHT22;66471;56.532;21.020;2024-03-07T21:32:59;0.50;97.10
73438;DHT22;66471;56.532;21.020;2024-03-07T21:35:26;0.40;96.70
73438;DHT22;66471;56.532;21.020;2024-03-07T21:37:54;0.50;96.80
73438;DHT22;66471;56.532;21.020;2024-03-07T21:40:21;0.60;96.50
73438;DHT22;66471;56.532;21.020;2024-03-07T21:42:50;0.50;96.40
73438;DHT22;66471;56.532;21.020;2024-03-07T21:45:18;0.40;96.30
73438;DHT22;66471;56.532;21.020;2024-03-07T21:47:45;0.20;96.90
73438;DHT22;66471;56.532;21.020;2024-03-07T21:50:14;0.20;97.40
73438;DHT22;66471;56.532;21.020;2024-03-07T21:52:45;0.40;97.60
73438;DHT22;66471;56.532;21.020;2024-03-07T21:55:13;0.20;97.50
73438;DHT22;66471;56.532;21.020;2024-03-07T21:57:48;0.10;97.40
73438;DHT22;66471;56.532;21.020;2024-03-07T22:00:16;0.20;97.30
73438;DHT22;66471;56.532;21.020;2024-03-07T22:02:47;0.20;97.30
73438;DHT22;66471;56.532;21.020;2024-03-07T22:05:30;0.30;97.50
73438;DHT22;66471;56.532;21.020;2024-03-07T22:08:00;0.50;97.20
73438;DHT22;66471;56.532;21.020;2024-03-07T22:10:32;0.40;97.10
73438;DHT22;66471;56.532;21.020;2024-03-07T22:13:02;0.20;97.30
73438;DHT22;66471;56.532;21.020;2024-03-07T22:15:32;0.50;97.50
73438;DHT22;66471;56.532;21.020;2024-03-07T22:18:03;0.50;97.10
73438;DHT22;66471;56.532;21.020;2024-03-07T22:20:33;0.70;96.90
73438;DHT22;66471;56.532;21.020;2024-03-07T22:23:04;0.60;96.70
73438;DHT22;66471;56.532;21.020;2024-03-07T22:25:31;0.60;96.40
73438;DHT22;66471;56.532;21.020;2024-03-07T22:27:59;0.60;96.20
73438;DHT22;66471;56.532;21.020;2024-03-07T22:30:30;0.80;96.50
73438;DHT22;66471;56.532;21.020;2024-03-07T22:32:58;0.80;96.50
73438;DHT22;66471;56.532;21.020;2024-03-07T22:35:25;0.60;96.50
73438;DHT22;66471;56.532;21.020;2024-03-07T22:37:52;0.80;96.60
73438;DHT22;66471;56.532;21.020;2024-03-07T22:40:21;0.70;96.30
73438;DHT22;66471;56.532;21.020;2024-03-07T22:42:54;0.80;96.60
73438;DHT22;66471;56.532;21.020;2024-03-07T22:45:22;0.60;96.90
73438;DHT22;66471;56.532;21.020;2024-03-07T22:47:50;0.60;96.60
73438;DHT22;66471;56.532;21.020;2024-03-07T22:50:20;0.60;95.90
73438;DHT22;66471;56.532;21.020;2024-03-07T22:52:59;0.60;96.30
73438;DHT22;66471;56.532;21.020;2024-03-07T22:55:28;0.50;97.10
73438;DHT22;66471;56.532;21.020;2024-03-07T22:57:55;0.50;97.00
73438;DHT22;66471;56.532;21.020;2024-03-07T23:00:22;0.60;96.60
73438;DHT22;66471;56.532;21.020;2024-03-07T23:02:56;0.30;97.10
73438;DHT22;66471;56.532;21.020;2024-03-07T23:05:27;0.20;97.60
73438;DHT22;66471;56.532;21.020;2024-03-07T23:07:56;0.20;97.90
73438;DHT22;66471;56.532;21.020;2024-03-07T23:10:24;0.20;97.60
73438;DHT22;66471;56.532;21.020;2024-03-07T23:12:52;0.20;97.60
73438;DHT22;66471;56.532;21.020;2024-03-07T23:15:20;0.30;97.60
73438;DHT22;66471;56.532;21.020;2024-03-07T23:17:52;0.20;97.50
73438;DHT22;66471;56.532;21.020;2024-03-07T23:20:22;0.30;97.80
73438;DHT22;66471;56.532;21.020;2024-03-07T23:22:54;0.30;97.70
73438;DHT22;66471;56.532;21.020;2024-03-07T23:25:26;0.40;97.90
73438;DHT22;66471;56.532;21.020;2024-03-07T23:27:54;0.50;98.00
73438;DHT22;66471;56.532;21.020;2024-03-07T23:30:22;0.50;98.00
73438;DHT22;66471;56.532;21.020;2024-03-07T23:32:51;0.30;97.60
73438;DHT22;66471;56.532;21.020;2024-03-07T23:35:20;0.40;97.80
73438;DHT22;66471;56.532;21.020;2024-03-07T23:37:47;0.40;98.10
73438;DHT22;66471;56.532;21.020;2024-03-07T23:40:18;0.50;97.70
73438;DHT22;66471;56.532;21.020;2024-03-07T23:42:47;0.60;97.60
73438;DHT22;66471;56.532;21.020;2024-03-07T23:45:19;0.50;97.60
73438;DHT22;66471;56.532;21.020;2024-03-07T23:47:46;0.40;97.60
73438;DHT22;66471;56.532;21.020;2024-03-07T23:50:14;0.20;97.80
73438;DHT22;66471;56.532;21.020;2024-03-07T23:52:45;0.50;97.90
73438;DHT22;66471;56.532;21.020;2024-03-07T23:55:13;0.50;97.80
73438;DHT22;66471;56.532;21.020;2024-03-07T23:57:43;0.30;97.80
